Louise, Mississippi
Current Conditions -  °F | °C
As of 7:53 AM on Monday 20 Oct 2014 (Local Time) from KGLH Reporting Station
Haze Haze  
Wind Chill: 48°   Ceiling: Unl
Heat Index: 48°   Visibility: 6mi
Dew Point: 47°   Wind: 3mph
Humidity: 96%   Direction: 150°SSE
Pressure: 30.09"   Gusts: NA
Location:  32.98°N, 90.59°W
Report Text: KGLH 201253Z AUTO 15003KT 6SM BR CLR 09/08 A3009 RMK AO2 SLP197 T00890083
Loading
Personal Weather Stations






























Interactive Weather Map New forecast layout! Learn more

10-Day Weather Forecast

Advertisements
Track Severe Weather on mobile